createdAt,value
2017-12-19T10:45:04.102Z,-5.03
2017-12-19T10:47:44.106Z,-4.55
2017-12-19T10:50:17.080Z,-4.02
2017-12-19T11:00:50.026Z,-3.84
2017-12-19T11:03:25.381Z,-4.07
2017-12-19T11:10:36.689Z,-2.92
2017-12-19T11:13:12.338Z,-2.54
2017-12-19T11:15:40.091Z,-2.86
2017-12-19T11:18:10.818Z,-2.47
2017-12-19T11:20:41.485Z,-2.47
2017-12-19T11:23:10.798Z,-2.52
2017-12-19T11:25:41.511Z,-2.86
2017-12-19T11:28:09.932Z,-3.13
2017-12-19T11:30:37.783Z,-3.14
2017-12-19T11:33:06.499Z,-3.92
2017-12-19T11:35:34.270Z,-3.66
2017-12-19T11:38:03.983Z,-3.28
2017-12-19T11:40:31.837Z,-3.06
2017-12-19T11:42:59.567Z,-2.84
2017-12-19T11:45:27.357Z,-3.06
2017-12-19T11:47:55.108Z,-3.77
2017-12-19T11:50:23.202Z,-3.68
2017-12-19T11:52:50.921Z,-3.43
2017-12-19T11:55:18.694Z,-3.22
2017-12-19T11:57:46.450Z,-3.49
2017-12-19T12:00:14.466Z,-3.37
2017-12-19T12:02:42.239Z,-3.05
2017-12-19T12:05:10.007Z,-3.21
2017-12-19T12:07:37.744Z,-3.56
2017-12-19T12:10:05.524Z,-3.20
2017-12-19T12:12:33.363Z,-3.41
2017-12-19T12:15:01.090Z,-3.16
2017-12-19T12:17:28.848Z,-2.81
2017-12-19T12:19:56.587Z,-3.03
2017-12-19T12:22:24.792Z,-2.92
2017-12-19T12:24:52.515Z,-3.31
2017-12-19T12:27:20.311Z,-3.19
2017-12-19T12:29:48.115Z,-2.92
2017-12-19T12:32:15.940Z,-2.94
2017-12-19T12:34:43.744Z,-2.90
2017-12-19T12:37:11.497Z,-3.18
2017-12-19T12:39:39.373Z,-3.25
2017-12-19T12:42:07.181Z,-3.14
2017-12-19T12:44:35.017Z,-3.11
2017-12-19T12:47:02.789Z,-3.29
2017-12-19T12:49:30.581Z,-3.30
2017-12-19T12:51:59.148Z,-3.20
2017-12-19T12:54:26.923Z,-3.12
2017-12-19T12:56:54.705Z,-2.77
2017-12-19T12:59:22.502Z,-2.66
2017-12-19T13:01:50.427Z,-2.73
2017-12-19T13:04:18.185Z,-2.99
2017-12-19T13:06:46.104Z,-3.25
2017-12-19T13:09:13.894Z,-2.90
2017-12-19T13:11:41.785Z,-2.81
2017-12-19T13:14:09.626Z,-3.00
2017-12-19T13:16:37.497Z,-2.76
2017-12-19T13:19:05.402Z,-2.75
2017-12-19T13:21:33.686Z,-2.75
2017-12-19T13:24:01.509Z,-2.67
2017-12-19T13:26:30.353Z,-2.63
2017-12-19T13:28:58.168Z,-2.66
2017-12-19T13:31:25.968Z,-2.66
2017-12-19T13:33:53.761Z,-2.88
2017-12-19T13:36:21.590Z,-2.64
2017-12-19T13:38:49.354Z,-2.76
2017-12-19T13:41:17.181Z,-2.60
2017-12-19T13:43:44.937Z,-2.59
2017-12-19T13:46:12.753Z,-2.50
2017-12-19T13:48:40.485Z,-2.54
2017-12-19T13:51:08.309Z,-2.86
2017-12-19T13:53:37.010Z,-2.80
2017-12-19T13:56:04.770Z,-2.66
2017-12-19T13:58:32.689Z,-2.60
2017-12-19T14:01:00.410Z,-2.71
2017-12-19T14:03:28.193Z,-2.82
2017-12-19T14:05:56.010Z,-2.78
2017-12-19T14:08:23.941Z,-2.73
2017-12-19T14:10:51.828Z,-3.13
2017-12-19T14:13:19.732Z,-3.18
2017-12-19T14:15:47.721Z,-3.22
2017-12-19T14:18:15.599Z,-3.15
2017-12-19T14:20:43.956Z,-3.22
2017-12-19T14:23:11.948Z,-3.12
2017-12-19T14:25:39.734Z,-3.37
2017-12-19T14:28:07.466Z,-3.56
2017-12-19T14:30:35.326Z,-3.71
2017-12-19T14:33:03.164Z,-3.74
2017-12-19T14:35:30.986Z,-3.67
2017-12-19T14:37:58.749Z,-3.61
2017-12-19T14:40:26.632Z,-3.49
2017-12-19T14:42:54.685Z,-3.46
2017-12-19T14:45:22.467Z,-3.71
2017-12-19T14:47:50.226Z,-3.66
2017-12-19T14:50:18.111Z,-3.62
2017-12-19T14:52:45.912Z,-3.54
2017-12-19T14:55:13.644Z,-3.57
2017-12-19T14:57:42.913Z,-3.56
2017-12-19T15:00:11.214Z,-3.60
2017-12-19T15:02:39.024Z,-3.89
2017-12-19T15:05:07.737Z,-3.72
2017-12-19T15:07:35.569Z,-3.71
2017-12-19T15:10:03.387Z,-3.84
2017-12-19T15:12:31.421Z,-3.87
2017-12-19T15:14:59.225Z,-3.92
2017-12-19T15:17:26.960Z,-3.97
2017-12-19T15:19:54.831Z,-3.96
2017-12-19T15:22:22.707Z,-3.92
2017-12-19T15:24:50.548Z,-3.85
2017-12-19T15:27:18.341Z,-4.00
2017-12-19T15:29:46.152Z,-3.99
2017-12-19T15:32:14.091Z,-3.97
2017-12-19T15:34:42.000Z,-3.91
2017-12-19T15:37:09.769Z,-4.04
2017-12-19T15:39:38.561Z,-4.05
2017-12-19T15:42:07.281Z,-4.11
2017-12-19T15:44:35.081Z,-4.04
2017-12-19T15:47:02.903Z,-4.09
2017-12-19T15:49:30.695Z,-3.99
2017-12-19T15:51:58.452Z,-3.99
2017-12-19T15:54:26.246Z,-3.90
2017-12-19T15:56:54.040Z,-3.93
2017-12-19T15:59:22.000Z,-4.06
2017-12-19T16:01:49.792Z,-3.92
2017-12-19T16:04:17.506Z,-4.04
2017-12-19T16:06:45.322Z,-3.96
2017-12-19T16:09:13.084Z,-3.96
2017-12-19T16:11:40.821Z,-3.93
2017-12-19T16:14:08.596Z,-3.93
2017-12-19T16:16:36.386Z,-3.87
2017-12-19T16:19:04.184Z,-3.85
2017-12-19T16:21:35.588Z,-3.94
2017-12-19T16:24:03.335Z,-4.00
2017-12-19T16:26:31.204Z,-4.11
2017-12-19T16:28:58.981Z,-4.10
2017-12-19T16:31:26.807Z,-4.14
2017-12-19T16:33:54.539Z,-4.06
2017-12-19T16:36:22.280Z,-4.13
2017-12-19T16:38:50.094Z,-4.08
2017-12-19T16:41:18.625Z,-4.12
2017-12-19T16:43:46.307Z,-4.06
2017-12-19T16:46:14.079Z,-4.04
2017-12-19T16:48:41.844Z,-3.97
2017-12-19T16:51:09.656Z,-4.01
2017-12-19T16:53:37.484Z,-3.97
2017-12-19T16:56:05.238Z,-4.02
2017-12-19T16:58:33.020Z,-4.10
2017-12-19T17:01:00.843Z,-3.99
2017-12-19T17:03:28.600Z,-4.03
2017-12-19T17:05:56.303Z,-3.99
2017-12-19T17:08:24.065Z,-3.87
2017-12-19T17:10:51.853Z,-3.91
2017-12-19T17:13:19.598Z,-3.93
2017-12-19T17:15:47.424Z,-3.89
2017-12-19T17:18:15.243Z,-3.91
2017-12-19T17:20:43.018Z,-3.89
2017-12-19T17:23:10.816Z,-3.86
2017-12-19T17:25:38.609Z,-3.78
2017-12-19T17:28:06.414Z,-3.71
2017-12-19T17:30:34.304Z,-3.50
2017-12-19T17:33:02.136Z,-3.66
2017-12-19T17:35:30.620Z,-3.72
2017-12-19T17:37:58.406Z,-3.77
2017-12-19T17:40:26.289Z,-3.91
2017-12-19T17:42:54.077Z,-3.96
2017-12-19T17:45:21.854Z,-3.90
2017-12-19T17:47:49.654Z,-3.85
2017-12-19T17:50:17.449Z,-3.94
2017-12-19T17:52:45.187Z,-4.00
2017-12-19T17:55:12.971Z,-4.03
2017-12-19T17:57:40.743Z,-4.01
2017-12-19T18:00:08.446Z,-4.03
2017-12-19T18:02:36.213Z,-3.94
2017-12-19T18:05:04.005Z,-3.90
2017-12-19T18:07:31.768Z,-4.14
2017-12-19T18:09:59.609Z,-4.00
2017-12-19T18:12:27.470Z,-3.92
2017-12-19T18:14:55.230Z,-3.90
2017-12-19T18:17:23.109Z,-3.85
2017-12-19T18:19:50.890Z,-3.82
2017-12-19T18:22:19.581Z,-3.74
2017-12-19T18:24:47.382Z,-3.73
2017-12-19T18:27:15.107Z,-3.64
2017-12-19T18:29:43.155Z,-3.63
2017-12-19T18:32:10.967Z,-3.60
2017-12-19T18:34:39.536Z,-3.55
2017-12-19T18:37:07.371Z,-3.52
2017-12-19T18:39:36.108Z,-3.47
2017-12-19T18:42:03.911Z,-3.57
2017-12-19T18:44:31.687Z,-3.60
2017-12-19T18:47:00.988Z,-3.59
2017-12-19T18:49:28.858Z,-3.62
2017-12-19T18:51:56.723Z,-3.50
2017-12-19T18:54:24.518Z,-3.47
2017-12-19T18:56:53.367Z,-3.44
2017-12-19T18:59:21.621Z,-3.44
2017-12-19T19:01:49.464Z,-3.45
2017-12-19T19:04:17.229Z,-3.47
2017-12-19T19:06:44.995Z,-3.44
2017-12-19T19:09:14.001Z,-3.42
2017-12-19T19:11:42.309Z,-3.38
2017-12-19T19:14:10.384Z,-3.41
2017-12-19T19:16:38.117Z,-3.39
2017-12-19T19:19:05.895Z,-3.32
2017-12-19T19:21:33.681Z,-3.26
2017-12-19T19:24:01.552Z,-3.18
2017-12-19T19:26:29.378Z,-3.14
2017-12-19T19:28:58.426Z,-3.10
2017-12-19T19:31:27.290Z,-3.05
2017-12-19T19:33:56.130Z,-3.17
2017-12-19T19:36:25.079Z,-3.22
2017-12-19T19:38:52.882Z,-3.15
2017-12-19T19:41:21.829Z,-3.11
2017-12-19T19:43:49.608Z,-3.11
2017-12-19T19:46:17.429Z,-3.08
2017-12-19T19:48:45.198Z,-2.72
2017-12-19T19:51:13.005Z,-3.00
2017-12-19T19:53:40.771Z,-3.19
2017-12-19T19:56:08.617Z,-3.34
2017-12-19T19:58:36.540Z,-3.26
2017-12-19T20:01:04.779Z,-3.26
2017-12-19T20:03:32.607Z,-3.26
2017-12-19T20:06:00.366Z,-3.20
2017-12-19T20:08:28.242Z,-3.15
2017-12-19T20:10:56.001Z,-3.10
2017-12-19T20:13:23.851Z,-3.12
2017-12-19T20:15:51.643Z,-3.06
2017-12-19T20:18:19.844Z,-3.03
2017-12-19T20:20:48.118Z,-3.12
2017-12-19T20:23:18.186Z,-3.05
2017-12-19T20:25:46.661Z,-3.09
2017-12-19T20:28:21.417Z,-3.15
2017-12-19T20:30:51.309Z,-3.11
2017-12-19T20:33:20.000Z,-3.08
2017-12-19T20:35:50.178Z,-3.09
2017-12-19T20:38:20.083Z,-3.16
2017-12-19T20:40:49.542Z,-3.18
2017-12-19T20:43:18.187Z,-3.21
2017-12-19T20:45:47.132Z,-3.09
2017-12-19T20:48:15.708Z,-3.12
2017-12-19T20:50:44.402Z,-3.07
2017-12-19T20:53:14.766Z,-3.04
2017-12-19T20:55:45.101Z,-2.99
2017-12-19T20:58:15.490Z,-2.87
2017-12-19T21:00:44.695Z,-2.77
2017-12-19T21:03:13.517Z,-2.71
2017-12-19T21:05:42.504Z,-2.72
2017-12-19T21:08:11.710Z,-2.80
2017-12-19T21:10:41.171Z,-2.82
2017-12-19T21:13:09.172Z,-2.95
2017-12-19T21:15:37.460Z,-2.97
2017-12-19T21:18:06.041Z,-2.89
2017-12-19T21:20:34.102Z,-2.84
2017-12-19T21:23:03.039Z,-2.81
2017-12-19T21:25:31.715Z,-2.78
2017-12-19T21:27:59.524Z,-2.77
2017-12-19T21:30:27.234Z,-2.69
2017-12-19T21:32:55.104Z,-2.59
2017-12-19T21:35:22.841Z,-2.67
2017-12-19T21:37:50.640Z,-2.59
2017-12-19T21:40:18.354Z,-2.64
2017-12-19T21:42:46.222Z,-2.78
2017-12-19T21:45:14.010Z,-2.72
2017-12-19T21:47:41.911Z,-2.76
2017-12-19T21:50:09.652Z,-2.64
2017-12-19T21:52:37.525Z,-2.68
2017-12-19T21:55:06.008Z,-2.60
2017-12-19T21:57:34.681Z,-2.64
2017-12-19T22:00:02.536Z,-2.59
2017-12-19T22:02:30.279Z,-2.60
2017-12-19T22:04:58.084Z,-2.65
2017-12-19T22:07:25.800Z,-2.59
2017-12-19T22:09:53.572Z,-2.59
2017-12-19T22:12:21.350Z,-2.61
2017-12-19T22:14:49.146Z,-2.53
2017-12-19T22:17:16.845Z,-2.50
2017-12-19T22:19:44.554Z,-2.49
2017-12-19T22:22:12.419Z,-2.50
2017-12-19T22:24:41.233Z,-2.46
2017-12-19T22:27:08.986Z,-2.44
2017-12-19T22:29:36.719Z,-2.49
2017-12-19T22:32:04.431Z,-2.46
2017-12-19T22:34:32.207Z,-2.54
2017-12-19T22:36:59.966Z,-2.50
2017-12-19T22:39:27.704Z,-2.45
2017-12-19T22:41:55.456Z,-2.40
2017-12-19T22:44:23.129Z,-2.39
2017-12-19T22:46:50.902Z,-2.35
2017-12-19T22:49:18.722Z,-2.32
2017-12-19T22:51:46.535Z,-2.28
2017-12-19T22:54:14.462Z,-2.29
2017-12-19T22:56:42.179Z,-2.28
2017-12-19T22:59:09.873Z,-2.21
2017-12-19T23:01:37.635Z,-2.14
2017-12-19T23:04:05.397Z,-2.07
2017-12-19T23:06:33.149Z,-2.06
2017-12-19T23:09:00.847Z,-2.04
2017-12-19T23:11:29.672Z,-1.84
2017-12-19T23:13:57.489Z,-1.96
2017-12-19T23:16:25.180Z,-1.97
2017-12-19T23:18:52.905Z,-1.89
2017-12-19T23:21:20.758Z,-1.82
2017-12-19T23:23:49.242Z,-1.82
2017-12-19T23:26:16.979Z,-1.83
2017-12-19T23:28:44.709Z,-1.72
2017-12-19T23:31:12.376Z,-1.50
2017-12-19T23:33:40.190Z,-1.56
2017-12-19T23:36:07.957Z,-1.75
2017-12-19T23:38:35.673Z,-1.81
2017-12-19T23:41:03.335Z,-1.88
2017-12-19T23:43:31.025Z,-1.89
2017-12-19T23:45:58.842Z,-1.90
2017-12-19T23:48:26.515Z,-1.86
2017-12-19T23:50:54.258Z,-1.87
2017-12-19T23:53:21.988Z,-1.84
2017-12-19T23:55:49.724Z,-1.84
2017-12-19T23:58:17.426Z,-1.85
